Time;durP1;ratioP1;P1;durP2;ratioP2;P2;SDS_P1;SDS_P2;PMS_P1;PMS_P2;Temp;Humidity;BMP_temperature;BMP_pressure;BME280_temperature;BME280_humidity;BME280_pressure;Samples;Min_cycle;Max_cycle;Signal;HPM_P1;HPM_P2
2022/11/19 00:01:18;;;;;;;22.57;16.13;;;;;;;;;;4996227;28;20237;-78
2022/11/19 00:03:44;;;;;;;20.00;16.03;;;;;;;;;;4995514;28;20213;-85
2022/11/19 00:06:12;;;;;;;20.63;16.10;;;;;;;;;;4996217;28;20174;-84
2022/11/19 00:08:39;;;;;;;19.57;16.80;;;;;;;;;;4995800;28;20190;-84
2022/11/19 00:12:53;;;;;;;20.27;17.23;;;;;;;;;;4994934;28;20229;-84
2022/11/19 00:14:04;;;;;;;22.77;18.07;;;;;;;;;;4996032;28;20193;-84
2022/11/19 00:16:37;;;;;;;20.83;17.67;;;;;;;;;;4996401;28;20237;-75
2022/11/19 00:19:04;;;;;;;23.63;18.00;;;;;;;;;;4995090;28;20217;-77
2022/11/19 00:21:30;;;;;;;20.07;16.40;;;;;;;;;;4994942;28;20186;-77
2022/11/19 00:23:56;;;;;;;21.00;17.87;;;;;;;;;;4994629;28;20210;-77
2022/11/19 00:26:23;;;;;;;19.43;17.00;;;;;;;;;;4993936;28;20185;-77
2022/11/19 00:28:49;;;;;;;19.67;17.17;;;;;;;;;;4995653;28;20177;-77
2022/11/19 00:31:15;;;;;;;20.97;16.80;;;;;;;;;;4994440;28;20177;-78
2022/11/19 00:33:42;;;;;;;20.23;17.70;;;;;;;;;;4994584;28;20221;-78
2022/11/19 00:36:09;;;;;;;20.67;17.83;;;;;;;;;;4994604;28;20288;-77
2022/11/19 00:38:36;;;;;;;21.47;17.63;;;;;;;;;;4994306;28;20186;-77
2022/11/19 00:41:02;;;;;;;20.23;16.97;;;;;;;;;;4995224;28;20178;-77
2022/11/19 00:43:46;;;;;;;20.17;17.43;;;;;;;;;;4978045;28;20275;-77
2022/11/19 00:46:19;;;;;;;19.83;17.50;;;;;;;;;;4977977;28;20186;-77
2022/11/19 00:48:46;;;;;;;19.03;17.03;;;;;;;;;;4994081;28;20188;-77
2022/11/19 00:51:12;;;;;;;20.00;17.13;;;;;;;;;;4994573;28;20205;-77
2022/11/19 00:53:39;;;;;;;18.57;16.57;;;;;;;;;;4994076;28;20198;-83
2022/11/19 00:56:09;;;;;;;20.17;17.23;;;;;;;;;;4994940;28;20177;-84
2022/11/19 00:58:35;;;;;;;18.77;16.33;;;;;;;;;;4994243;28;20197;-84
2022/11/19 01:01:02;;;;;;;19.60;16.80;;;;;;;;;;4993885;28;20194;-83
2022/11/19 01:03:28;;;;;;;18.97;16.97;;;;;;;;;;4990474;28;20213;-83
2022/11/19 01:05:54;;;;;;;19.80;17.50;;;;;;;;;;4991113;28;20209;-76
2022/11/19 01:08:20;;;;;;;19.63;17.53;;;;;;;;;;4990627;28;20187;-75
2022/11/19 01:10:46;;;;;;;20.43;17.60;;;;;;;;;;4991050;28;20234;-78
2022/11/19 01:15:56;;;;;;;20.07;17.97;;;;;;;;;;4983048;28;20200;-79
2022/11/19 01:18:22;;;;;;;19.33;17.23;;;;;;;;;;4982970;28;20277;-78
2022/11/19 01:20:49;;;;;;;19.83;17.73;;;;;;;;;;4984226;28;20182;-78
2022/11/19 01:23:14;;;;;;;21.43;17.70;;;;;;;;;;4967937;28;20240;-79
2022/11/19 01:25:40;;;;;;;21.33;18.60;;;;;;;;;;4982904;28;20175;-78
2022/11/19 01:28:07;;;;;;;20.50;18.37;;;;;;;;;;4984344;28;20174;-78
2022/11/19 01:30:33;;;;;;;20.77;18.30;;;;;;;;;;4983202;28;20185;-78
2022/11/19 01:32:59;;;;;;;20.40;18.00;;;;;;;;;;4985629;28;20189;-78
2022/11/19 01:35:25;;;;;;;21.23;18.57;;;;;;;;;;4969269;28;20187;-77
2022/11/19 01:37:51;;;;;;;20.63;18.43;;;;;;;;;;4985358;28;20190;-79
2022/11/19 01:40:17;;;;;;;22.47;19.83;;;;;;;;;;4983779;28;20185;-79
2022/11/19 01:42:50;;;;;;;24.03;19.90;;;;;;;;;;4985684;28;20206;-79
2022/11/19 01:45:31;;;;;;;21.43;19.20;;;;;;;;;;4984205;28;20202;-79
2022/11/19 01:47:59;;;;;;;22.77;20.00;;;;;;;;;;4983848;28;20201;-79
2022/11/19 01:50:26;;;;;;;24.30;20.60;;;;;;;;;;4985631;28;20178;-79
2022/11/19 01:52:52;;;;;;;23.37;20.27;;;;;;;;;;4983500;28;20207;-79
2022/11/19 01:55:18;;;;;;;24.10;20.43;;;;;;;;;;4985139;28;20194;-79
2022/11/19 01:57:45;;;;;;;24.10;20.70;;;;;;;;;;4969507;28;20221;-79
2022/11/19 02:00:11;;;;;;;23.93;20.37;;;;;;;;;;4986190;28;20280;-79
2022/11/19 02:02:37;;;;;;;23.53;20.50;;;;;;;;;;4986346;28;20206;-79
2022/11/19 02:05:04;;;;;;;23.47;20.83;;;;;;;;;;4969745;28;20193;-79
2022/11/19 02:07:33;;;;;;;24.87;21.87;;;;;;;;;;4982599;28;20221;-80
2022/11/19 02:10:00;;;;;;;26.43;22.00;;;;;;;;;;4989329;28;20228;-80
2022/11/19 02:12:29;;;;;;;25.77;22.67;;;;;;;;;;4984324;28;20217;-79
2022/11/19 02:15:07;;;;;;;24.70;21.83;;;;;;;;;;4984788;28;20178;-85
2022/11/19 02:17:51;;;;;;;25.70;22.80;;;;;;;;;;5003562;28;20173;-84
2022/11/19 02:20:26;;;;;;;27.43;23.80;;;;;;;;;;4997983;28;20178;-85
2022/11/19 02:23:11;;;;;;;26.83;22.97;;;;;;;;;;4986343;28;20213;-83
2022/11/19 02:25:43;;;;;;;25.87;23.03;;;;;;;;;;5005066;28;20189;-84
2022/11/19 02:28:21;;;;;;;28.83;24.00;;;;;;;;;;4993022;28;20232;-85
2022/11/19 02:30:52;;;;;;;27.83;23.90;;;;;;;;;;4990088;28;20186;-84
2022/11/19 02:33:29;;;;;;;30.97;25.10;;;;;;;;;;4993337;28;20181;-85
2022/11/19 02:35:58;;;;;;;28.03;24.43;;;;;;;;;;4993239;28;20178;-85
2022/11/19 02:38:28;;;;;;;26.60;23.77;;;;;;;;;;4993451;28;20201;-84
2022/11/19 02:40:56;;;;;;;29.27;24.73;;;;;;;;;;4992916;28;20193;-83
2022/11/19 02:43:29;;;;;;;27.13;24.20;;;;;;;;;;4993901;28;20244;-85
2022/11/19 02:45:58;;;;;;;31.27;25.43;;;;;;;;;;4974873;28;20202;-84
2022/11/19 02:48:45;;;;;;;31.17;26.33;;;;;;;;;;5006945;28;20236;-76
2022/11/19 02:51:12;;;;;;;29.43;25.40;;;;;;;;;;4996845;28;20185;-76
2022/11/19 02:53:38;;;;;;;30.33;25.77;;;;;;;;;;4996493;28;20186;-76
2022/11/19 02:56:16;;;;;;;29.03;25.70;;;;;;;;;;4996561;28;20197;-76
2022/11/19 03:04:31;;;;;;;29.73;25.13;;;;;;;;;;4997442;28;20224;-76
2022/11/19 03:07:05;;;;;;;30.57;25.90;;;;;;;;;;4997364;28;20182;-84
2022/11/19 03:09:32;;;;;;;28.93;25.63;;;;;;;;;;4996151;28;20177;-84
2022/11/19 03:12:04;;;;;;;29.37;25.40;;;;;;;;;;4995965;28;20218;-84
2022/11/19 03:17:21;;;;;;;30.53;26.30;;;;;;;;;;4997257;28;20233;-85
2022/11/19 03:19:50;;;;;;;33.23;27.23;;;;;;;;;;4995813;28;20182;-85
2022/11/19 03:22:31;;;;;;;29.20;26.00;;;;;;;;;;4996409;28;20198;-79
2022/11/19 03:25:00;;;;;;;30.90;25.17;;;;;;;;;;4995665;23;20194;-85
2022/11/19 03:27:32;;;;;;;28.10;24.57;;;;;;;;;;5016953;28;20192;-85
2022/11/19 03:30:00;;;;;;;29.50;25.00;;;;;;;;;;5016814;28;20176;-84
2022/11/19 03:32:32;;;;;;;29.63;26.43;;;;;;;;;;5017162;28;20192;-84
2022/11/19 03:35:01;;;;;;;30.97;26.80;;;;;;;;;;5017642;28;20188;-84
2022/11/19 03:37:33;;;;;;;28.83;25.80;;;;;;;;;;5018146;28;20185;-84
2022/11/19 03:40:00;;;;;;;29.73;25.50;;;;;;;;;;5007229;28;20209;-84
2022/11/19 03:42:26;;;;;;;30.73;26.70;;;;;;;;;;4997659;28;20215;-84
2022/11/19 03:44:57;;;;;;;31.10;25.90;;;;;;;;;;4998490;28;20182;-84
2022/11/19 03:47:30;;;;;;;31.13;27.07;;;;;;;;;;4997612;28;20212;-84
2022/11/19 03:49:58;;;;;;;30.53;26.73;;;;;;;;;;4994407;28;20193;-84
2022/11/19 03:52:27;;;;;;;30.60;26.93;;;;;;;;;;4979038;28;20182;-84
2022/11/19 03:54:53;;;;;;;30.07;25.93;;;;;;;;;;4998865;28;20189;-84
2022/11/19 03:57:20;;;;;;;30.97;26.83;;;;;;;;;;4994645;28;20247;-84
2022/11/19 03:59:49;;;;;;;30.93;26.20;;;;;;;;;;4981192;28;20200;-84
2022/11/19 04:02:16;;;;;;;30.40;25.63;;;;;;;;;;4997540;28;20211;-84
2022/11/19 04:04:42;;;;;;;30.43;26.33;;;;;;;;;;4996835;28;20185;-83
2022/11/19 04:07:15;;;;;;;31.23;25.97;;;;;;;;;;4987579;28;20182;-84
2022/11/19 04:09:42;;;;;;;29.67;26.47;;;;;;;;;;4979662;28;20185;-84
2022/11/19 04:12:12;;;;;;;33.83;26.87;;;;;;;;;;4996680;28;20185;-84
2022/11/19 04:14:38;;;;;;;30.70;25.87;;;;;;;;;;4994978;28;20183;-84
2022/11/19 04:17:04;;;;;;;31.37;26.60;;;;;;;;;;4996825;28;20196;-83
2022/11/19 04:19:33;;;;;;;31.53;26.77;;;;;;;;;;4996699;28;20181;-84
2022/11/19 04:21:59;;;;;;;33.50;27.03;;;;;;;;;;4997176;28;20181;-84
2022/11/19 04:24:25;;;;;;;33.77;26.93;;;;;;;;;;4996088;28;20189;-84
2022/11/19 04:26:51;;;;;;;30.63;26.00;;;;;;;;;;4977699;28;20254;-84
2022/11/19 04:29:20;;;;;;;31.93;27.10;;;;;;;;;;4971941;28;20211;-84
2022/11/19 04:31:46;;;;;;;31.53;26.33;;;;;;;;;;4970965;28;20190;-83
2022/11/19 04:34:12;;;;;;;33.87;27.63;;;;;;;;;;4965251;28;20190;-84
2022/11/19 04:36:41;;;;;;;31.20;27.23;;;;;;;;;;4974439;28;20194;-84
2022/11/19 04:39:07;;;;;;;33.07;27.37;;;;;;;;;;4971117;28;20220;-84
2022/11/19 04:41:34;;;;;;;35.87;28.50;;;;;;;;;;4957658;28;20190;-84
2022/11/19 04:44:02;;;;;;;31.47;26.10;;;;;;;;;;4970002;28;20226;-83
2022/11/19 04:46:28;;;;;;;30.70;27.13;;;;;;;;;;4971134;28;20202;-84
2022/11/19 04:48:54;;;;;;;36.13;32.47;;;;;;;;;;4954204;29;20420;-84
2022/11/19 04:51:20;;;;;;;31.47;28.13;;;;;;;;;;4955826;28;20184;-84
2022/11/19 04:53:49;;;;;;;36.10;32.40;;;;;;;;;;4973431;28;20437;-83
2022/11/19 04:56:15;;;;;;;33.77;28.43;;;;;;;;;;4974064;28;20179;-84
2022/11/19 04:58:41;;;;;;;34.75;31.05;;;;;;;;;;4969722;28;20536;-84
2022/11/19 05:01:07;;;;;;;37.75;34.05;;;;;;;;;;4967894;28;20422;-83
2022/11/19 05:03:36;;;;;;;37.92;34.03;;;;;;;;;;4972087;28;20441;-83
2022/11/19 05:06:02;;;;;;;34.27;29.33;;;;;;;;;;4974000;28;20354;-83
2022/11/19 05:08:28;;;;;;;37.92;34.13;;;;;;;;;;4970592;28;20428;-83
2022/11/19 05:10:57;;;;;;;34.27;29.30;;;;;;;;;;4961989;28;20207;-83
2022/11/19 05:13:23;;;;;;;35.67;31.88;;;;;;;;;;4954210;28;20451;-83
2022/11/19 05:15:49;;;;;;;37.67;33.88;;;;;;;;;;4959448;28;20426;-83
2022/11/19 05:18:15;;;;;;;39.13;35.13;;;;;;;;;;4972458;28;20438;-84
2022/11/19 05:20:43;;;;;;;37.33;33.53;;;;;;;;;;4969348;28;20470;-84
2022/11/19 05:23:09;;;;;;;36.25;32.53;;;;;;;;;;4954024;28;20551;-83
2022/11/19 05:25:36;;;;;;;34.00;30.30;;;;;;;;;;4971343;28;20452;-84
2022/11/19 05:28:04;;;;;;;34.70;31.00;;;;;;;;;;4995028;28;20427;-84
2022/11/19 05:30:30;;;;;;;37.42;33.63;;;;;;;;;;4994568;28;20505;-84
2022/11/19 05:32:56;;;;;;;36.97;33.17;;;;;;;;;;4995242;28;20418;-84
2022/11/19 05:35:23;;;;;;;36.13;32.22;;;;;;;;;;4992013;28;20511;-84
2022/11/19 05:37:51;;;;;;;37.50;33.70;;;;;;;;;;5001835;28;20427;-83
2022/11/19 05:40:17;;;;;;;36.83;33.05;;;;;;;;;;4993619;28;20430;-83
2022/11/19 05:42:43;;;;;;;36.20;32.50;;;;;;;;;;5007758;28;20467;-83
2022/11/19 05:45:12;;;;;;;35.78;32.13;;;;;;;;;;5008147;28;20419;-83
2022/11/19 05:47:39;;;;;;;35.30;31.70;;;;;;;;;;4994384;28;20427;-83
2022/11/19 05:50:05;;;;;;;34.28;30.85;;;;;;;;;;4989579;28;20419;-84
2022/11/19 05:52:34;;;;;;;35.25;31.75;;;;;;;;;;4998702;28;20415;-83
2022/11/19 05:55:00;;;;;;;34.55;31.05;;;;;;;;;;4991614;28;20415;-83
2022/11/19 05:57:26;;;;;;;30.77;27.00;;;;;;;;;;5001170;28;20177;-84
2022/11/19 05:59:52;;;;;;;32.92;29.60;;;;;;;;;;4998139;28;20453;-84
2022/11/19 06:02:21;;;;;;;34.25;30.83;;;;;;;;;;5009709;28;20476;-84
2022/11/19 06:04:47;;;;;;;33.75;30.35;;;;;;;;;;4994654;28;20495;-84
2022/11/19 06:07:13;;;;;;;34.33;30.93;;;;;;;;;;4994509;28;20514;-84
2022/11/19 06:09:42;;;;;;;33.97;30.48;;;;;;;;;;5003642;28;20407;-84
2022/11/19 06:12:08;;;;;;;34.63;31.20;;;;;;;;;;4994562;28;20417;-84
2022/11/19 06:14:34;;;;;;;33.75;30.45;;;;;;;;;;4995562;28;20418;-84
2022/11/19 06:17:00;;;;;;;33.65;30.30;;;;;;;;;;4994735;28;20417;-84
2022/11/19 06:19:28;;;;;;;34.03;30.70;;;;;;;;;;4994651;28;20415;-84
2022/11/19 06:21:54;;;;;;;35.72;32.13;;;;;;;;;;5003779;28;20478;-84
2022/11/19 06:24:21;;;;;;;33.13;29.83;;;;;;;;;;4999777;28;20423;-84
2022/11/19 06:26:50;;;;;;;33.63;30.23;;;;;;;;;;4991800;28;20456;-84
2022/11/19 06:29:16;;;;;;;33.67;30.25;;;;;;;;;;4989067;28;20429;-84
2022/11/19 06:31:43;;;;;;;34.45;30.92;;;;;;;;;;4983875;28;20451;-83
2022/11/19 06:34:12;;;;;;;33.95;30.55;;;;;;;;;;4985473;28;20441;-84
2022/11/19 06:36:39;;;;;;;31.97;26.57;;;;;;;;;;4987148;28;20173;-84
2022/11/19 06:39:05;;;;;;;30.20;25.95;;;;;;;;;;4989730;28;20443;-83
2022/11/19 06:41:34;;;;;;;34.03;30.52;;;;;;;;;;4983288;28;20416;-84
2022/11/19 06:44:00;;;;;;;33.78;30.48;;;;;;;;;;4986271;28;20476;-83
2022/11/19 06:46:26;;;;;;;33.72;30.13;;;;;;;;;;4984654;28;20446;-84
2022/11/19 06:48:52;;;;;;;33.03;29.63;;;;;;;;;;4983334;28;20424;-84
2022/11/19 06:51:20;;;;;;;33.97;30.58;;;;;;;;;;4983305;28;20436;-84
2022/11/19 06:53:46;;;;;;;32.45;27.75;;;;;;;;;;4984819;28;20461;-84
2022/11/19 06:56:12;;;;;;;33.22;29.83;;;;;;;;;;4984133;28;20426;-84
2022/11/19 06:58:38;;;;;;;33.97;30.50;;;;;;;;;;4978050;28;20428;-84
2022/11/19 07:01:07;;;;;;;33.40;29.98;;;;;;;;;;4984378;28;20483;-84
2022/11/19 07:03:34;;;;;;;33.70;30.02;;;;;;;;;;4975153;28;20444;-84
2022/11/19 07:06:05;;;;;;;33.53;29.92;;;;;;;;;;4975665;28;20509;-84
2022/11/19 07:08:33;;;;;;;33.10;28.83;;;;;;;;;;4979304;28;20456;-84
2022/11/19 07:10:59;;;;;;;33.65;30.15;;;;;;;;;;4985981;28;20409;-84
2022/11/19 07:13:55;;;;;;;34.13;30.63;;;;;;;;;;4983624;28;20472;-83
2022/11/19 07:16:16;;;;;;;35.13;31.42;;;;;;;;;;4985744;28;20408;-84
2022/11/19 07:18:42;;;;;;;33.40;29.95;;;;;;;;;;4976372;28;20431;-85
2022/11/19 07:21:08;;;;;;;32.55;29.05;;;;;;;;;;4969504;28;20476;-84
2022/11/19 07:23:36;;;;;;;33.45;29.98;;;;;;;;;;4976433;28;20426;-84
2022/11/19 07:26:05;;;;;;;31.67;25.70;;;;;;;;;;4990960;28;20228;-86
2022/11/19 07:28:31;;;;;;;30.53;24.37;;;;;;;;;;4998343;28;20173;-86
2022/11/19 07:31:03;;;;;;;32.53;25.65;;;;;;;;;;5006400;28;20466;-86
2022/11/19 07:33:38;;;;;;;32.97;29.58;;;;;;;;;;5001210;28;20470;-85
2022/11/19 07:36:14;;;;;;;;;;;;;;;;;;;;;
2022/11/19 07:38:40;;;;;;;33.80;30.40;;;;;;;;;;5017280;28;20421;-84
2022/11/19 07:44:03;;;;;;;32.17;28.67;;;;;;;;;;5011505;28;20438;-84
2022/11/19 07:46:32;;;;;;;32.85;29.45;;;;;;;;;;4998233;28;20419;-85
2022/11/19 07:48:58;;;;;;;32.53;29.07;;;;;;;;;;5003523;28;20521;-84
2022/11/19 07:51:24;;;;;;;31.43;28.13;;;;;;;;;;4999960;28;20495;-85
2022/11/19 07:53:54;;;;;;;31.20;28.00;;;;;;;;;;4993415;28;20411;-85
2022/11/19 07:56:20;;;;;;;31.53;28.27;;;;;;;;;;4997392;28;20434;-85
2022/11/19 07:58:46;;;;;;;31.20;27.93;;;;;;;;;;5005653;28;20411;-86
2022/11/19 08:01:17;;;;;;;30.27;27.23;;;;;;;;;;4996920;28;20411;-85
2022/11/19 08:03:45;;;;;;;31.02;27.83;;;;;;;;;;4996560;28;20423;-85
2022/11/19 08:06:14;;;;;;;29.70;26.70;;;;;;;;;;5002166;28;20407;-85
2022/11/19 08:08:40;;;;;;;29.85;26.83;;;;;;;;;;5004697;28;20509;-85
2022/11/19 08:11:07;;;;;;;29.75;26.77;;;;;;;;;;4996588;28;20414;-85
2022/11/19 08:13:36;;;;;;;30.57;27.43;;;;;;;;;;5004504;28;20419;-85
2022/11/19 08:16:03;;;;;;;31.17;27.20;;;;;;;;;;4997025;28;20497;-85
2022/11/19 08:18:30;;;;;;;28.85;25.95;;;;;;;;;;4996938;28;20458;-84
2022/11/19 08:21:01;;;;;;;30.00;26.95;;;;;;;;;;4996382;28;20407;-85
2022/11/19 08:23:27;;;;;;;29.48;26.38;;;;;;;;;;5004423;28;20435;-85
2022/11/19 08:25:54;;;;;;;26.80;23.27;;;;;;;;;;4999806;28;20462;-85
2022/11/19 08:28:23;;;;;;;28.60;25.70;;;;;;;;;;4997141;28;20419;-85
2022/11/19 08:30:49;;;;;;;28.30;25.40;;;;;;;;;;4996891;28;20440;-84
2022/11/19 08:33:15;;;;;;;27.98;24.95;;;;;;;;;;4996597;28;20403;-85
2022/11/19 08:35:43;;;;;;;28.57;25.77;;;;;;;;;;4996690;28;20407;-85
2022/11/19 08:38:10;;;;;;;26.58;23.88;;;;;;;;;;4996952;28;20431;-85
2022/11/19 08:40:36;;;;;;;27.20;24.45;;;;;;;;;;4996277;28;20494;-85
2022/11/19 08:43:05;;;;;;;28.30;20.57;;;;;;;;;;4997547;28;20239;-85
2022/11/19 08:45:35;;;;;;;24.40;19.33;;;;;;;;;;4997532;28;20180;-85
2022/11/19 08:48:03;;;;;;;24.00;21.38;;;;;;;;;;4996501;28;20423;-84
2022/11/19 08:50:30;;;;;;;24.90;22.45;;;;;;;;;;4996860;28;20490;-84
2022/11/19 08:53:03;;;;;;;22.98;20.77;;;;;;;;;;5012819;28;20411;-85
2022/11/19 08:55:30;;;;;;;21.85;19.70;;;;;;;;;;5013167;28;20394;-84
2022/11/19 08:58:02;;;;;;;21.48;19.48;;;;;;;;;;5012936;28;20418;-85
2022/11/19 09:00:28;;;;;;;19.73;17.77;;;;;;;;;;5009439;28;20489;-85
2022/11/19 09:02:55;;;;;;;18.33;16.43;;;;;;;;;;4996994;28;20209;-85
2022/11/19 09:05:21;;;;;;;21.50;19.35;;;;;;;;;;4996195;28;20469;-85
2022/11/19 09:07:50;;;;;;;20.13;18.13;;;;;;;;;;4996626;28;20411;-85
2022/11/19 09:10:16;;;;;;;18.47;16.57;;;;;;;;;;4997115;28;20181;-85
2022/11/19 09:12:42;;;;;;;19.20;16.30;;;;;;;;;;4997041;28;20189;-85
2022/11/19 09:15:11;;;;;;;17.60;15.10;;;;;;;;;;4997191;28;20210;-85
2022/11/19 09:17:38;;;;;;;16.80;14.97;;;;;;;;;;4996838;28;20189;-85
2022/11/19 09:20:04;;;;;;;16.53;14.60;;;;;;;;;;4996642;28;20177;-85
2022/11/19 09:22:35;;;;;;;17.58;15.85;;;;;;;;;;4996687;28;20445;-85
2022/11/19 09:25:01;;;;;;;16.10;14.50;;;;;;;;;;4997171;28;20177;-86
2022/11/19 09:27:27;;;;;;;15.20;13.67;;;;;;;;;;4996382;28;20229;-85
2022/11/19 09:29:56;;;;;;;15.73;14.13;;;;;;;;;;4996704;28;20180;-85
2022/11/19 09:32:22;;;;;;;16.07;14.47;;;;;;;;;;4996469;28;20181;-86
2022/11/19 09:35:09;;;;;;;15.47;13.83;;;;;;;;;;4997865;28;20178;-86
2022/11/19 09:45:50;;;;;;;15.30;13.77;;;;;;;;;;5575013;23;20235;-80
2022/11/19 09:48:19;;;;;;;14.57;13.20;;;;;;;;;;5031810;28;20173;-80
2022/11/19 09:50:45;;;;;;;14.53;13.13;;;;;;;;;;5031318;28;20267;-80
2022/11/19 09:53:17;;;;;;;13.73;12.40;;;;;;;;;;5020997;28;20209;-80
2022/11/19 09:55:44;;;;;;;13.97;12.67;;;;;;;;;;5033076;28;20180;-80
2022/11/19 09:58:22;;;;;;;14.30;13.00;;;;;;;;;;5020361;28;20196;-80
2022/11/19 10:00:48;;;;;;;14.23;12.83;;;;;;;;;;5030572;28;20248;-80
2022/11/19 10:03:15;;;;;;;14.50;13.20;;;;;;;;;;5008795;28;20221;-77
2022/11/19 10:05:44;;;;;;;14.00;12.67;;;;;;;;;;5000698;28;20217;-77
2022/11/19 10:08:13;;;;;;;13.63;12.33;;;;;;;;;;5026000;28;20180;-77
2022/11/19 10:10:50;;;;;;;13.03;11.83;;;;;;;;;;5036774;28;20193;-77
2022/11/19 10:13:22;;;;;;;12.50;11.30;;;;;;;;;;5036646;28;20206;-77
2022/11/19 10:16:05;;;;;;;12.67;11.50;;;;;;;;;;5036449;28;20204;-78
2022/11/19 10:18:39;;;;;;;13.27;12.07;;;;;;;;;;5031969;28;20227;-80
2022/11/19 10:21:08;;;;;;;13.50;11.70;;;;;;;;;;5034207;28;20176;-81
2022/11/19 10:23:40;;;;;;;13.37;12.03;;;;;;;;;;5037821;28;20204;-81
2022/11/19 10:26:11;;;;;;;14.03;12.63;;;;;;;;;;5029242;28;20334;-81
2022/11/19 10:28:39;;;;;;;13.33;12.13;;;;;;;;;;5036061;28;20277;-81
2022/11/19 10:31:12;;;;;;;13.20;12.00;;;;;;;;;;5035988;28;20416;-81
2022/11/19 10:33:43;;;;;;;12.47;11.37;;;;;;;;;;5037862;28;20188;-81
2022/11/19 10:36:11;;;;;;;12.82;11.63;;;;;;;;;;5037703;28;20410;-81
2022/11/19 10:38:40;;;;;;;12.87;11.60;;;;;;;;;;5057392;28;20176;-81
2022/11/19 10:41:25;;;;;;;12.10;11.10;;;;;;;;;;5041977;28;20177;-81
2022/11/19 10:43:54;;;;;;;11.80;10.60;;;;;;;;;;5036319;28;20223;-81
2022/11/19 10:46:23;;;;;;;12.32;11.23;;;;;;;;;;5039755;28;20432;-81
2022/11/19 10:48:55;;;;;;;11.00;10.00;;;;;;;;;;5036473;28;20437;-81
2022/11/19 10:51:23;;;;;;;11.20;10.20;;;;;;;;;;5049675;28;20179;-89
2022/11/19 10:53:50;;;;;;;12.00;11.00;;;;;;;;;;5055393;28;20404;-89
2022/11/19 10:56:24;;;;;;;13.07;11.00;;;;;;;;;;5049776;28;20498;-88
2022/11/19 10:58:55;;;;;;;11.03;10.03;;;;;;;;;;5050469;28;20196;-89
2022/11/19 11:01:21;;;;;;;11.53;10.57;;;;;;;;;;5047547;28;20319;-89
2022/11/19 11:03:49;;;;;;;11.27;10.27;;;;;;;;;;5051055;28;20283;-89
2022/11/19 11:06:15;;;;;;;10.80;9.90;;;;;;;;;;5055845;28;20164;-89
2022/11/19 11:08:48;;;;;;;12.13;10.93;;;;;;;;;;5043681;28;20172;-78
2022/11/19 11:11:22;;;;;;;11.23;10.23;;;;;;;;;;5035248;28;20180;-78
2022/11/19 11:16:43;;;;;;;12.03;10.93;;;;;;;;;;5036278;28;20231;-78
2022/11/19 11:19:12;;;;;;;12.20;11.00;;;;;;;;;;5036671;28;20200;-78
2022/11/19 11:21:41;;;;;;;12.60;11.50;;;;;;;;;;5035314;28;20445;-78
2022/11/19 11:24:08;;;;;;;11.77;10.67;;;;;;;;;;5036584;28;20200;-77
2022/11/19 11:26:36;;;;;;;12.27;11.18;;;;;;;;;;5037691;28;20405;-89
2022/11/19 11:29:22;;;;;;;12.43;11.33;;;;;;;;;;5056263;28;20454;-88
2022/11/19 11:31:48;;;;;;;12.27;11.07;;;;;;;;;;5044103;28;20191;-81
2022/11/19 11:34:28;;;;;;;13.10;11.90;;;;;;;;;;5035045;28;20406;-80
2022/11/19 11:36:55;;;;;;;11.83;10.73;;;;;;;;;;5035276;28;20283;-80
2022/11/19 11:39:26;;;;;;;11.97;10.77;;;;;;;;;;5035806;28;20184;-80
2022/11/19 11:41:52;;;;;;;12.77;11.50;;;;;;;;;;5035591;28;20184;-77
2022/11/19 11:44:19;;;;;;;13.13;11.93;;;;;;;;;;5017923;28;20441;-77
2022/11/19 11:46:48;;;;;;;13.05;11.65;;;;;;;;;;5031435;28;20419;-77
2022/11/19 11:49:25;;;;;;;12.00;10.83;;;;;;;;;;5033725;28;20184;-77
2022/11/19 11:52:14;;;;;;;11.77;10.67;;;;;;;;;;5029677;28;20161;-77
2022/11/19 11:55:00;;;;;;;11.63;10.53;;;;;;;;;;5007505;28;20185;-77
2022/11/19 11:57:26;;;;;;;12.20;11.00;;;;;;;;;;5014968;28;20177;-77
2022/11/19 11:59:52;;;;;;;11.70;10.60;;;;;;;;;;5019161;28;20181;-80
2022/11/19 12:02:21;;;;;;;11.67;10.57;;;;;;;;;;5042711;28;20266;-80
2022/11/19 12:04:48;;;;;;;11.97;10.70;;;;;;;;;;5034782;28;20255;-79
2022/11/19 12:07:32;;;;;;;10.90;9.47;;;;;;;;;;5035848;28;20180;-79
2022/11/19 12:10:02;;;;;;;11.90;10.70;;;;;;;;;;5035749;28;20173;-79
2022/11/19 12:12:28;;;;;;;11.70;10.37;;;;;;;;;;5037269;28;20203;-79
2022/11/19 12:15:02;;;;;;;11.33;10.20;;;;;;;;;;5045906;28;20168;-79
2022/11/19 12:17:40;;;;;;;10.87;9.77;;;;;;;;;;5055780;28;20180;-80
2022/11/19 12:20:21;;;;;;;10.87;9.77;;;;;;;;;;5054376;28;20179;-80
2022/11/19 12:22:59;;;;;;;11.00;9.90;;;;;;;;;;5053733;28;20245;-80
2022/11/19 12:25:39;;;;;;;10.37;9.37;;;;;;;;;;5055330;28;20176;-80
2022/11/19 12:28:24;;;;;;;10.87;9.77;;;;;;;;;;5054259;28;20171;-80
2022/11/19 12:31:18;;;;;;;10.60;9.50;;;;;;;;;;5035409;28;20181;-80
2022/11/19 12:33:56;;;;;;;11.35;10.30;;;;;;;;;;5032949;28;20433;-77
2022/11/19 12:36:28;;;;;;;14.33;9.13;;;;;;;;;;5034478;28;20193;-77
2022/11/19 12:38:54;;;;;;;10.93;9.82;;;;;;;;;;5033197;28;20505;-87
2022/11/19 12:41:23;;;;;;;9.97;8.97;;;;;;;;;;5034493;28;20195;-87
2022/11/19 12:43:49;;;;;;;9.57;8.67;;;;;;;;;;5034134;28;20227;-87
2022/11/19 12:46:20;;;;;;;9.80;8.80;;;;;;;;;;5033686;28;20220;-87
2022/11/19 12:48:52;;;;;;;10.20;9.20;;;;;;;;;;5033933;28;20207;-87
2022/11/19 12:51:18;;;;;;;11.83;8.37;;;;;;;;;;5033701;28;20222;-87
2022/11/19 12:53:53;;;;;;;9.23;8.33;;;;;;;;;;5034076;28;20258;-87
2022/11/19 12:56:39;;;;;;;9.33;8.43;;;;;;;;;;5033986;28;20183;-77
2022/11/19 12:59:08;;;;;;;9.27;8.27;;;;;;;;;;5033397;28;20177;-77
2022/11/19 13:01:38;;;;;;;8.37;7.57;;;;;;;;;;5033535;28;20196;-77
2022/11/19 13:04:04;;;;;;;8.73;7.93;;;;;;;;;;5033508;28;20215;-77
2022/11/19 13:06:35;;;;;;;9.00;6.93;;;;;;;;;;5033719;28;20177;-87
2022/11/19 13:09:03;;;;;;;9.00;8.20;;;;;;;;;;5033134;28;20412;-86
2022/11/19 13:11:35;;;;;;;8.83;7.93;;;;;;;;;;5033128;28;20514;-87
2022/11/19 13:14:12;;;;;;;8.97;8.03;;;;;;;;;;5033474;28;20187;-87
2022/11/19 13:16:39;;;;;;;8.80;8.00;;;;;;;;;;5032846;28;20413;-87
2022/11/19 13:19:14;;;;;;;8.50;7.37;;;;;;;;;;5033304;28;20234;-87
2022/11/19 13:21:58;;;;;;;8.20;7.33;;;;;;;;;;5034249;28;20188;-80
2022/11/19 13:24:38;;;;;;;8.47;7.67;;;;;;;;;;5033108;28;20197;-80
2022/11/19 13:27:06;;;;;;;7.67;6.33;;;;;;;;;;5014077;28;20181;-80
2022/11/19 13:29:44;;;;;;;7.83;7.03;;;;;;;;;;5033006;28;20233;-80
2022/11/19 13:32:29;;;;;;;7.93;7.13;;;;;;;;;;5033790;28;20200;-79
2022/11/19 13:35:05;;;;;;;6.90;6.27;;;;;;;;;;5033958;28;20180;-79
2022/11/19 13:37:31;;;;;;;7.20;6.50;;;;;;;;;;5032734;28;20192;-79
2022/11/19 13:40:02;;;;;;;6.70;6.00;;;;;;;;;;5032916;28;20336;-87
2022/11/19 13:45:16;;;;;;;7.47;6.57;;;;;;;;;;5033275;28;20228;-87
2022/11/19 13:47:52;;;;;;;7.80;6.73;;;;;;;;;;5032991;28;20180;-77
2022/11/19 13:50:21;;;;;;;6.97;6.30;;;;;;;;;;5033365;28;20180;-77
2022/11/19 13:52:50;;;;;;;7.57;6.50;;;;;;;;;;5028463;28;20189;-77
2022/11/19 13:55:42;;;;;;;7.07;6.37;;;;;;;;;;5032621;28;20191;-79
2022/11/19 13:58:16;;;;;;;6.93;6.23;;;;;;;;;;5031288;28;20197;-79
2022/11/19 14:00:54;;;;;;;8.87;6.37;;;;;;;;;;5033278;28;20225;-79
2022/11/19 14:03:35;;;;;;;7.23;6.53;;;;;;;;;;5032745;28;20236;-79
2022/11/19 14:06:04;;;;;;;6.83;6.20;;;;;;;;;;5033930;28;20236;-79
2022/11/19 14:08:40;;;;;;;6.90;6.30;;;;;;;;;;5030980;28;20188;-79
2022/11/19 14:11:06;;;;;;;8.03;5.77;;;;;;;;;;5032587;28;20311;-79
2022/11/19 14:13:51;;;;;;;5.80;5.30;;;;;;;;;;5033548;28;20180;-79
2022/11/19 14:28:40;;;;;;;7.20;5.43;;;;;;;;;;5033744;28;20201;-79
2022/11/19 14:31:07;;;;;;;6.43;5.83;;;;;;;;;;5027681;28;20216;-79
2022/11/19 14:33:42;;;;;;;8.60;5.80;;;;;;;;;;5016271;28;20187;-79
2022/11/19 14:36:12;;;;;;;6.20;5.53;;;;;;;;;;5032935;28;20204;-79
2022/11/19 14:38:41;;;;;;;6.77;6.03;;;;;;;;;;5033576;28;20259;-79
2022/11/19 14:41:16;;;;;;;6.23;5.63;;;;;;;;;;5032189;28;20188;-79
2022/11/19 14:44:07;;;;;;;6.30;5.60;;;;;;;;;;5032801;28;20212;-79
2022/11/19 14:46:34;;;;;;;6.73;5.67;;;;;;;;;;5035480;28;20252;-76
2022/11/19 14:49:02;;;;;;;6.63;5.60;;;;;;;;;;5036449;28;20180;-76
2022/11/19 14:51:28;;;;;;;6.53;5.90;;;;;;;;;;5036172;28;20185;-76
2022/11/19 14:54:04;;;;;;;5.77;5.23;;;;;;;;;;5035550;28;20212;-76
2022/11/19 14:56:31;;;;;;;7.70;5.77;;;;;;;;;;5035683;28;20192;-76
2022/11/19 14:59:03;;;;;;;6.63;6.03;;;;;;;;;;5037210;28;20183;-76
2022/11/19 15:01:29;;;;;;;7.27;6.17;;;;;;;;;;5035639;28;20219;-79
2022/11/19 15:03:56;;;;;;;6.23;5.63;;;;;;;;;;5035508;28;20212;-79
2022/11/19 15:06:23;;;;;;;6.90;6.00;;;;;;;;;;5035430;28;20215;-78
2022/11/19 15:08:50;;;;;;;7.57;5.87;;;;;;;;;;5035516;28;20188;-79
2022/11/19 15:11:17;;;;;;;7.37;5.70;;;;;;;;;;5035721;28;20181;-79
2022/11/19 15:13:44;;;;;;;6.17;5.57;;;;;;;;;;5035697;28;20184;-79
2022/11/19 15:16:24;;;;;;;8.13;5.73;;;;;;;;;;5036405;28;20177;-79
2022/11/19 15:18:51;;;;;;;6.63;5.93;;;;;;;;;;5035857;28;20212;-76